Hopewell, Canada
Current Conditions -  °F | °C
As of 2:27 AM on Thursday 27 Nov 2014 (Local Time) from CYHZ Reporting Station
Light Rain Light Rain  
Wind Chill: 28°   Ceiling: 500
Heat Index: 36°   Visibility: 3mi
Dew Point: 36°   Wind: 12mph
Humidity: 100%   Direction: 30°NNE
Pressure: 29.68"   Gusts: NA
Location:  45.47°N, 62.7°W
Report Text: CYHZ 270627Z 03010KT 3SM -RA BR BKN005 OVC012 02/02 A2968 RMK SF5NS3 PRESFR SLP054
Loading
Personal Weather Stations






























Interactive Weather Map New forecast layout! Learn more

10-Day Weather Forecast

Advertisements
Track Severe Weather on mobile